createdAt,value
2017-07-24T00:01:38.351Z,94779.37
2017-07-24T00:04:05.911Z,94780.56
2017-07-24T00:06:33.886Z,94777.58
2017-07-24T00:09:01.407Z,94780.22
2017-07-24T00:11:29.790Z,94773.89
2017-07-24T00:13:57.317Z,94765.22
2017-07-24T00:16:24.825Z,94762.63
2017-07-24T00:18:52.401Z,94754.32
2017-07-24T00:21:19.919Z,94753.45
2017-07-24T00:23:47.422Z,94751.95
2017-07-24T00:26:14.978Z,94754.11
2017-07-24T00:28:42.491Z,94752.48
2017-07-24T00:31:09.992Z,94753.20
2017-07-24T00:33:37.581Z,94747.13
2017-07-24T00:36:05.090Z,94744.75
2017-07-24T00:38:32.645Z,94745.37
2017-07-24T00:41:00.241Z,94743.59
2017-07-24T00:43:27.744Z,94740.75
2017-07-24T00:45:55.306Z,94736.58
2017-07-24T00:48:22.802Z,94733.94
2017-07-24T00:50:50.342Z,94740.09
2017-07-24T00:53:17.892Z,94744.92
2017-07-24T00:55:45.458Z,94735.77
2017-07-24T00:58:12.963Z,94727.32
2017-07-24T01:00:40.477Z,94726.70
2017-07-24T01:03:08.037Z,94735.84
2017-07-24T01:05:35.532Z,94744.36
2017-07-24T01:08:03.025Z,94745.05
2017-07-24T01:10:30.572Z,94743.21
2017-07-24T01:12:58.069Z,94752.23
2017-07-24T01:15:25.608Z,94750.97
2017-07-24T01:17:53.391Z,94754.05
2017-07-24T01:20:20.906Z,94761.42
2017-07-24T01:22:48.755Z,94759.49
2017-07-24T01:25:16.292Z,94756.16
2017-07-24T01:27:43.789Z,94760.66
2017-07-24T01:30:11.333Z,94752.91
2017-07-24T01:32:38.887Z,94750.59
2017-07-24T01:35:06.423Z,94758.28
2017-07-24T01:37:34.009Z,94747.14
2017-07-24T01:40:01.605Z,94751.80
2017-07-24T01:42:29.164Z,94749.30
2017-07-24T01:44:56.676Z,94751.45
2017-07-24T01:47:24.182Z,94743.50
2017-07-24T01:49:51.734Z,94740.95
2017-07-24T01:52:19.251Z,94747.19
2017-07-24T01:54:46.809Z,94734.36
2017-07-24T01:57:14.377Z,94730.17
2017-07-24T01:59:41.885Z,94731.23
2017-07-24T02:02:10.041Z,94728.47
2017-07-24T02:04:37.580Z,94740.59
2017-07-24T02:07:05.166Z,94734.48
2017-07-24T02:09:32.670Z,94728.42
2017-07-24T02:12:00.173Z,94730.00
2017-07-24T02:14:27.735Z,94724.73
2017-07-24T02:16:55.235Z,94727.45
2017-07-24T02:19:22.802Z,94731.72
2017-07-24T02:21:51.081Z,94718.89
2017-07-24T02:24:18.587Z,94729.83
2017-07-24T02:26:46.142Z,94731.24
2017-07-24T02:29:13.647Z,94732.91
2017-07-24T02:31:41.142Z,94740.61
2017-07-24T02:34:08.683Z,94739.19
2017-07-24T02:36:36.238Z,94729.88
2017-07-24T02:39:03.847Z,94737.78
2017-07-24T02:41:31.350Z,94738.13
2017-07-24T02:43:58.906Z,94730.09
2017-07-24T02:46:26.412Z,94709.53
2017-07-24T02:48:53.973Z,94743.90
2017-07-24T02:51:21.478Z,94753.95
2017-07-24T02:53:48.998Z,94748.46
2017-07-24T02:56:16.542Z,94743.19
2017-07-24T02:58:44.062Z,94749.87
2017-07-24T03:01:11.618Z,94749.20
2017-07-24T03:03:39.126Z,94749.47
2017-07-24T03:06:06.633Z,94750.44
2017-07-24T03:08:34.188Z,94744.03
2017-07-24T03:11:01.731Z,94746.75
2017-07-24T03:13:32.079Z,94744.03
2017-07-24T03:15:59.616Z,94739.72
2017-07-24T03:18:27.129Z,94742.84
2017-07-24T03:20:54.682Z,94735.19
2017-07-24T03:23:22.189Z,94740.64
2017-07-24T03:25:49.714Z,94739.27
2017-07-24T03:28:17.278Z,94732.61
2017-07-24T03:30:44.794Z,94730.35
2017-07-24T03:33:13.087Z,94724.66
2017-07-24T03:35:40.681Z,94704.48
2017-07-24T03:38:08.187Z,94711.51
2017-07-24T03:40:35.689Z,94723.28
2017-07-24T03:43:03.248Z,94722.05
2017-07-24T03:45:30.761Z,94730.05
2017-07-24T03:47:58.282Z,94719.72
2017-07-24T03:50:25.838Z,94718.77
2017-07-24T03:52:53.369Z,94728.00
2017-07-24T03:55:20.865Z,94720.92
2017-07-24T03:57:49.181Z,94706.16
2017-07-24T04:00:16.709Z,94713.35
2017-07-24T04:02:44.232Z,94732.94
2017-07-24T04:05:12.018Z,94733.13
2017-07-24T04:07:40.048Z,94726.81
2017-07-24T04:10:07.593Z,94723.41
2017-07-24T04:12:35.093Z,94722.56
2017-07-24T04:15:02.649Z,94727.89
2017-07-24T04:17:30.169Z,94722.00
2017-07-24T04:19:57.672Z,94720.23
2017-07-24T04:22:25.224Z,94729.02
2017-07-24T04:24:52.733Z,94724.74
2017-07-24T04:27:20.237Z,94701.42
2017-07-24T04:29:47.781Z,94720.79
2017-07-24T04:32:15.341Z,94720.38
2017-07-24T04:34:42.916Z,94721.13
2017-07-24T04:37:10.426Z,94709.63
2017-07-24T04:39:37.932Z,94717.88
2017-07-24T04:42:05.482Z,94715.39
2017-07-24T04:44:33.277Z,94704.13
2017-07-24T04:47:00.785Z,94709.62
2017-07-24T04:49:28.376Z,94706.84
2017-07-24T04:51:55.896Z,94697.17
2017-07-24T04:54:23.405Z,94696.10
2017-07-24T04:56:51.006Z,94702.98
2017-07-24T04:59:18.561Z,94704.04
2017-07-24T05:01:46.202Z,94691.77
2017-07-24T05:04:13.757Z,94701.64
2017-07-24T05:06:41.289Z,94689.94
2017-07-24T05:09:09.137Z,94688.75
2017-07-24T05:11:36.654Z,94707.93
2017-07-24T05:14:04.181Z,94703.19
2017-07-24T05:16:31.730Z,94695.22
2017-07-24T05:19:00.001Z,94699.20
2017-07-24T05:21:27.576Z,94705.99
2017-07-24T05:23:55.107Z,94696.58
2017-07-24T05:26:22.601Z,94701.64
2017-07-24T05:28:50.237Z,94685.30
2017-07-24T05:31:17.800Z,94647.34
2017-07-24T05:33:45.561Z,94678.32
2017-07-24T05:36:13.891Z,94670.45
2017-07-24T05:38:41.407Z,94680.50
2017-07-24T05:41:08.960Z,94676.95
2017-07-24T05:43:36.519Z,94682.74
2017-07-24T05:46:04.094Z,94670.25
2017-07-24T05:48:31.752Z,94687.70
2017-07-24T05:50:59.510Z,94669.22
2017-07-24T05:53:27.133Z,94681.64
2017-07-24T05:55:54.682Z,94685.73
2017-07-24T05:58:23.314Z,94683.22
2017-07-24T06:00:50.899Z,94694.64
2017-07-24T06:03:18.512Z,94693.45
2017-07-24T06:05:46.066Z,94677.69
2017-07-24T06:08:13.685Z,94693.63
2017-07-24T06:10:41.575Z,94673.77
2017-07-24T06:13:09.638Z,94689.47
2017-07-24T06:15:37.235Z,94679.77
2017-07-24T06:18:04.869Z,94678.47
2017-07-24T06:20:32.620Z,94676.22
2017-07-24T06:23:00.385Z,94677.75
2017-07-24T06:25:28.044Z,94676.80
2017-07-24T06:27:55.599Z,94679.04
2017-07-24T06:30:27.742Z,94687.19
2017-07-24T06:33:01.871Z,94675.73
2017-07-24T06:35:35.848Z,94683.27
2017-07-24T06:41:12.998Z,94674.69
2017-07-24T06:47:00.485Z,94671.05
2017-07-24T06:49:28.299Z,94678.49
2017-07-24T06:52:33.335Z,94680.95
2017-07-24T06:55:15.878Z,94671.41
2017-07-24T06:57:50.843Z,94687.28
2017-07-24T07:00:54.916Z,94688.53
2017-07-24T07:03:24.429Z,94676.50
2017-07-24T07:05:55.109Z,94686.53
2017-07-24T07:08:26.624Z,94677.14
2017-07-24T07:11:03.902Z,94672.87
2017-07-24T07:13:54.182Z,94673.36
2017-07-24T07:16:56.323Z,94677.64
2017-07-24T07:19:34.544Z,94683.68
2017-07-24T07:22:07.491Z,94686.23
2017-07-24T07:24:42.983Z,94687.98
2017-07-24T07:27:16.852Z,94693.52
2017-07-24T07:30:06.622Z,94687.23
2017-07-24T07:32:38.417Z,94673.03
2017-07-24T07:37:49.791Z,94678.61
2017-07-24T07:40:32.385Z,94686.84
2017-07-24T07:43:02.406Z,94671.23
2017-07-24T08:11:30.077Z,94665.20
2017-07-24T08:13:58.688Z,94647.14
2017-07-24T08:16:29.933Z,94643.92
2017-07-24T08:19:02.192Z,94620.39
2017-07-24T08:21:31.513Z,94636.33
2017-07-24T08:24:00.357Z,94633.80
2017-07-24T08:27:03.200Z,94622.98
2017-07-24T08:29:33.420Z,94625.56
2017-07-24T08:32:17.647Z,94613.17
2017-07-24T08:34:53.426Z,94618.88
2017-07-24T08:37:56.765Z,94616.12
2017-07-24T08:40:30.278Z,94610.70
2017-07-24T08:46:10.119Z,94589.93
2017-07-24T08:48:43.668Z,94603.92
2017-07-24T08:54:40.477Z,94604.53
2017-07-24T08:57:08.559Z,94600.92
2017-07-24T08:59:39.488Z,94593.62
2017-07-24T09:02:07.454Z,94600.43
2017-07-24T09:04:35.334Z,94592.09
2017-07-24T09:07:03.054Z,94586.62
2017-07-24T09:09:31.167Z,94588.76
2017-07-24T09:11:59.510Z,94585.84
2017-07-24T09:14:31.412Z,94588.25
2017-07-24T09:17:08.877Z,94586.39
2017-07-24T09:19:38.360Z,94577.58
2017-07-24T09:22:12.494Z,94578.77
2017-07-24T09:24:49.178Z,94584.28
2017-07-24T09:27:16.855Z,94563.32
2017-07-24T09:29:44.577Z,94580.82
2017-07-24T09:32:12.295Z,94585.84
2017-07-24T09:34:40.951Z,94571.40
2017-07-24T09:37:08.594Z,94573.74
2017-07-24T09:39:36.220Z,94567.30
2017-07-24T09:42:04.353Z,94571.85
2017-07-24T09:44:32.408Z,94559.65
2017-07-24T09:47:00.088Z,94553.42
2017-07-24T09:49:28.131Z,94564.09
2017-07-24T09:51:56.235Z,94550.42
2017-07-24T09:54:27.507Z,94536.83
2017-07-24T09:56:56.211Z,94547.95
2017-07-24T09:59:24.168Z,94549.84
2017-07-24T10:01:58.385Z,94542.22
2017-07-24T10:04:28.206Z,94537.34
2017-07-24T10:06:58.910Z,94534.23
2017-07-24T10:09:26.725Z,94537.00
2017-07-24T10:11:55.832Z,94526.59
2017-07-24T10:14:23.772Z,94533.37
2017-07-24T10:16:52.653Z,94523.72
2017-07-24T10:19:21.995Z,94526.88
2017-07-24T10:21:49.648Z,94506.42
2017-07-24T10:24:19.306Z,94512.87
2017-07-24T10:26:47.243Z,94506.27
2017-07-24T10:29:15.143Z,94497.48
2017-07-24T10:31:43.443Z,94491.82
2017-07-24T10:34:11.411Z,94490.83
2017-07-24T10:36:39.493Z,94492.06
2017-07-24T10:39:07.750Z,94492.19
2017-07-24T10:41:35.718Z,94478.52
2017-07-24T10:44:03.278Z,94479.80
2017-07-24T10:46:36.317Z,94474.31
2017-07-24T10:49:05.107Z,94473.34
2017-07-24T10:51:33.568Z,94468.66
2017-07-24T10:54:01.329Z,94456.14
2017-07-24T10:56:31.144Z,94447.33
2017-07-24T10:58:59.733Z,94451.56
2017-07-24T11:01:28.259Z,94437.08
2017-07-24T11:03:56.177Z,94434.36
2017-07-24T11:06:24.868Z,94441.12
2017-07-24T11:08:53.375Z,94438.50
2017-07-24T11:11:23.082Z,94431.56
2017-07-24T11:13:52.046Z,94430.19
2017-07-24T11:16:20.461Z,94428.79
2017-07-24T11:18:48.542Z,94423.20
2017-07-24T11:21:16.763Z,94418.32
2017-07-24T11:23:45.390Z,94414.56
2017-07-24T11:26:14.030Z,94417.58
2017-07-24T11:28:41.639Z,94421.11
2017-07-24T11:31:11.274Z,94417.62
2017-07-24T11:33:39.513Z,94405.41
2017-07-24T11:36:08.507Z,94409.98
2017-07-24T11:38:36.285Z,94410.57
2017-07-24T11:41:08.543Z,94399.22
2017-07-24T11:43:36.980Z,94391.63
2017-07-24T11:46:11.343Z,94388.77
2017-07-24T11:51:48.134Z,94392.02
2017-07-24T11:54:15.906Z,94391.60
2017-07-24T11:56:43.474Z,94391.08
2017-07-24T11:59:10.999Z,94381.50
2017-07-24T12:01:39.584Z,94378.89
2017-07-24T12:04:07.169Z,94374.95
2017-07-24T12:06:34.717Z,94360.98
2017-07-24T12:09:04.853Z,94371.55
2017-07-24T12:11:33.427Z,94381.23
2017-07-24T12:14:01.870Z,94378.64
2017-07-24T12:16:29.571Z,94385.23
2017-07-24T12:18:57.272Z,94393.73
2017-07-24T12:21:24.837Z,94385.59
2017-07-24T12:23:52.487Z,94385.72
2017-07-24T12:26:20.049Z,94385.63
2017-07-24T12:28:47.600Z,94380.34
2017-07-24T12:31:15.285Z,94379.34
2017-07-24T12:33:42.863Z,94371.12
2017-07-24T12:36:11.279Z,94380.34
2017-07-24T12:38:47.157Z,94379.94
2017-07-24T12:44:14.822Z,94367.30
2017-07-24T12:46:43.887Z,94362.72
2017-07-24T12:49:11.794Z,94360.69
2017-07-24T12:51:39.580Z,94354.62
2017-07-24T12:54:07.471Z,94352.78
2017-07-24T12:56:35.143Z,94355.09
2017-07-24T12:59:02.798Z,94347.55
2017-07-24T13:01:32.006Z,94334.59
2017-07-24T13:03:59.613Z,94334.87
2017-07-24T13:06:27.221Z,94328.95
2017-07-24T13:08:55.225Z,94326.27
2017-07-24T13:11:23.069Z,94314.17
2017-07-24T13:13:50.643Z,94311.27
2017-07-24T13:16:18.229Z,94301.77
2017-07-24T13:18:45.855Z,94306.67
2017-07-24T13:21:13.529Z,94304.00
2017-07-24T13:23:41.133Z,94301.44
2017-07-24T13:26:08.821Z,94292.57
2017-07-24T13:28:36.614Z,94292.48
2017-07-24T13:31:05.226Z,94258.16
2017-07-24T13:33:52.002Z,94256.22
2017-07-24T13:36:39.460Z,94267.73
2017-07-24T13:39:07.058Z,94266.77
2017-07-24T13:41:34.855Z,94270.66
2017-07-24T13:44:02.718Z,94267.28
2017-07-24T13:46:30.589Z,94273.61
2017-07-24T13:48:59.513Z,94282.13
2017-07-24T13:51:27.270Z,94278.42
2017-07-24T13:53:55.127Z,94283.19
2017-07-24T13:56:25.075Z,94285.74
2017-07-24T13:58:54.173Z,94287.11
2017-07-24T14:01:21.933Z,94288.94
2017-07-24T14:03:50.115Z,94296.56
2017-07-24T14:06:18.237Z,94298.13
2017-07-24T14:08:45.858Z,94291.31
2017-07-24T14:11:16.886Z,94305.08
2017-07-24T14:13:44.553Z,94299.41
2017-07-24T14:16:12.777Z,94292.90
2017-07-24T14:18:40.931Z,94292.29
2017-07-24T14:21:08.739Z,94278.36
2017-07-24T14:23:36.517Z,94289.73
2017-07-24T14:26:04.326Z,94284.27
2017-07-24T14:28:34.647Z,94275.50
2017-07-24T14:31:02.659Z,94280.95
2017-07-24T14:33:30.588Z,94279.58
2017-07-24T14:35:58.187Z,94271.25
2017-07-24T14:38:25.818Z,94271.06
2017-07-24T14:40:53.453Z,94255.42
2017-07-24T14:43:21.013Z,94256.27
2017-07-24T14:53:07.842Z,94213.79
2017-07-24T14:58:26.110Z,94221.22
2017-07-24T15:00:53.637Z,94217.92
2017-07-24T15:03:21.321Z,94214.50
2017-07-24T15:05:48.950Z,94205.12
2017-07-24T15:08:16.739Z,94202.96
2017-07-24T15:12:05.660Z,94121.93
2017-07-24T15:14:33.190Z,94122.05
2017-07-24T15:17:00.776Z,94114.44
2017-07-24T15:19:28.412Z,94114.89
2017-07-24T15:21:56.010Z,94114.16
2017-07-24T15:24:23.554Z,94103.92
2017-07-24T15:26:51.177Z,94099.75
2017-07-24T15:29:18.794Z,94089.30
2017-07-24T15:31:46.374Z,94093.53
2017-07-24T15:34:14.699Z,94081.66
2017-07-24T15:36:42.259Z,94077.34
2017-07-24T15:39:09.930Z,94073.96
2017-07-24T15:41:37.556Z,94080.77
2017-07-24T15:44:05.177Z,94081.97
2017-07-24T15:46:32.762Z,94090.36
2017-07-24T15:49:00.333Z,94087.69
2017-07-24T15:51:27.881Z,94083.38
2017-07-24T15:53:55.451Z,94080.84
2017-07-24T15:56:23.092Z,94077.90
2017-07-24T15:58:50.740Z,94071.66
2017-07-24T16:01:18.315Z,94072.31
2017-07-24T16:03:45.867Z,94072.55
2017-07-24T16:06:13.465Z,94076.02
2017-07-24T16:08:41.031Z,94070.77
2017-07-24T16:11:08.590Z,94072.31
2017-07-24T16:13:36.225Z,94073.89
2017-07-24T16:16:03.726Z,94064.23
2017-07-24T16:18:31.237Z,94066.84
2017-07-24T16:20:58.898Z,94062.16
2017-07-24T16:23:26.523Z,94059.80
2017-07-24T16:25:54.073Z,94063.21
2017-07-24T16:28:21.585Z,94060.98
2017-07-24T16:30:49.149Z,94055.85
2017-07-24T16:33:16.662Z,94062.84
2017-07-24T16:35:44.222Z,94056.09
2017-07-24T16:38:11.774Z,94050.31
2017-07-24T16:40:39.282Z,94044.45
2017-07-24T16:43:06.842Z,94048.02
2017-07-24T16:45:34.345Z,94045.34
2017-07-24T16:48:01.878Z,94042.16
2017-07-24T16:50:29.472Z,94047.41
2017-07-24T16:52:57.022Z,94045.04
2017-07-24T16:55:24.536Z,94054.02
2017-07-24T16:57:52.096Z,94053.73
2017-07-24T17:00:19.721Z,94043.27
2017-07-24T17:02:47.256Z,94043.13
2017-07-24T17:05:14.798Z,94044.36
2017-07-24T17:07:42.305Z,94049.80
2017-07-24T17:10:09.857Z,94051.84
2017-07-24T17:12:37.414Z,94053.63
2017-07-24T17:15:04.926Z,94056.60
2017-07-24T17:17:32.441Z,94058.07
2017-07-24T17:19:59.996Z,94064.36
2017-07-24T17:22:27.505Z,94067.48
2017-07-24T17:24:55.106Z,94061.33
2017-07-24T17:27:22.613Z,94061.70
2017-07-24T17:29:50.192Z,94062.28
2017-07-24T17:32:17.761Z,94064.67
2017-07-24T17:34:45.265Z,94068.64
2017-07-24T17:37:12.814Z,94061.36
2017-07-24T17:39:40.379Z,94063.52
2017-07-24T17:42:07.892Z,94066.25
2017-07-24T17:44:35.390Z,94065.86
2017-07-24T17:47:02.947Z,94056.52
2017-07-24T17:49:30.450Z,94061.91
2017-07-24T17:51:57.964Z,94060.95
2017-07-24T17:54:25.509Z,94066.15
2017-07-24T17:56:53.058Z,94061.18
2017-07-24T17:59:20.629Z,94056.23
2017-07-24T18:01:48.173Z,94055.89
2017-07-24T18:04:15.677Z,94060.94
2017-07-24T18:06:43.233Z,94059.55
2017-07-24T18:09:10.749Z,94061.02
2017-07-24T18:11:38.259Z,94068.00
2017-07-24T18:14:05.807Z,94074.95
2017-07-24T18:16:33.330Z,94072.05
2017-07-24T18:19:00.844Z,94072.56
2017-07-24T18:21:28.395Z,94071.98
2017-07-24T18:23:55.915Z,94081.61
2017-07-24T18:26:23.512Z,94089.48
2017-07-24T18:28:51.016Z,94086.80
2017-07-24T18:31:18.562Z,94080.70
2017-07-24T18:33:46.118Z,94093.73
2017-07-24T18:36:13.680Z,94092.73
2017-07-24T18:38:41.199Z,94094.23
2017-07-24T18:41:08.701Z,94093.79
2017-07-24T18:43:36.275Z,94087.83
2017-07-24T18:46:03.783Z,94089.91
2017-07-24T18:48:31.289Z,94088.02
2017-07-24T18:50:58.829Z,94092.99
2017-07-24T18:53:26.338Z,94089.36
2017-07-24T18:55:53.916Z,94098.89
2017-07-24T18:58:21.448Z,94090.88
2017-07-24T19:00:48.959Z,94098.27
2017-07-24T19:03:16.521Z,94097.14
2017-07-24T19:05:44.042Z,94101.44
2017-07-24T19:08:11.605Z,94095.84
2017-07-24T19:10:39.109Z,94101.15
2017-07-24T19:13:06.617Z,94094.13
2017-07-24T19:15:34.201Z,94090.88
2017-07-24T19:18:01.709Z,94087.45
2017-07-24T19:20:29.225Z,94093.17
2017-07-24T19:22:56.785Z,94085.23
2017-07-24T19:25:24.297Z,94084.82
2017-07-24T19:27:51.843Z,94084.82
2017-07-24T19:30:19.396Z,94077.31
2017-07-24T19:32:46.974Z,94079.77
2017-07-24T19:35:14.474Z,94077.72
2017-07-24T19:37:41.989Z,94077.04
2017-07-24T19:40:09.573Z,94069.99
2017-07-24T19:42:37.252Z,94061.78
2017-07-24T19:45:04.917Z,94059.49
2017-07-24T19:47:32.416Z,94056.45
2017-07-24T19:49:59.970Z,94053.50
2017-07-24T19:52:27.485Z,94054.63
2017-07-24T19:54:55.046Z,94050.70
2017-07-24T19:57:22.549Z,94048.55
2017-07-24T19:59:50.125Z,94049.48
2017-07-24T20:02:17.668Z,94052.30
2017-07-24T20:04:45.214Z,94046.52
2017-07-24T20:07:12.721Z,94042.48
2017-07-24T20:09:40.233Z,94038.86
2017-07-24T20:12:07.806Z,94037.08
2017-07-24T20:14:35.318Z,94033.83
2017-07-24T20:17:02.821Z,94024.05
2017-07-24T20:19:30.386Z,94023.16
2017-07-24T20:21:57.895Z,94016.17
2017-07-24T20:24:25.401Z,94014.27
2017-07-24T20:26:53.013Z,94014.47
2017-07-24T20:29:20.570Z,94014.98
2017-07-24T20:31:48.093Z,94012.63
2017-07-24T20:34:15.685Z,94014.20
2017-07-24T20:36:43.248Z,94011.16
2017-07-24T20:39:10.762Z,94005.95
2017-07-24T20:41:38.265Z,94005.45
2017-07-24T20:44:05.823Z,94007.02
2017-07-24T20:46:33.330Z,94010.34
2017-07-24T20:49:00.843Z,94010.03
2017-07-24T20:51:28.399Z,94002.20
2017-07-24T20:53:55.906Z,94004.86
2017-07-24T20:56:23.474Z,93998.70
2017-07-24T20:58:50.986Z,94003.67
2017-07-24T21:01:18.533Z,94002.78
2017-07-24T21:03:46.144Z,94003.84
2017-07-24T21:06:13.687Z,93995.02
2017-07-24T21:08:41.208Z,93994.27
2017-07-24T21:11:08.765Z,93996.04
2017-07-24T21:13:36.269Z,93988.72
2017-07-24T21:16:03.787Z,93994.33
2017-07-24T21:18:31.340Z,93994.64
2017-07-24T21:20:58.853Z,93993.75
2017-07-24T21:23:26.373Z,93990.02
2017-07-24T21:25:53.938Z,93994.23
2017-07-24T21:28:21.501Z,93982.60
2017-07-24T21:30:49.052Z,93981.34
2017-07-24T21:33:16.596Z,93984.45
2017-07-24T21:35:44.105Z,93976.55
2017-07-24T21:38:11.647Z,93975.34
2017-07-24T21:40:39.160Z,93974.08
2017-07-24T21:43:06.723Z,93974.91
2017-07-24T21:48:08.085Z,93969.33
2017-07-24T21:50:35.617Z,93957.63
2017-07-24T21:53:03.168Z,93961.56
2017-07-24T21:55:30.677Z,93946.31
2017-07-24T21:57:58.190Z,93945.55
2017-07-24T22:00:25.745Z,93953.56
2017-07-24T22:02:53.304Z,93965.80
2017-07-24T22:05:20.857Z,93961.12
2017-07-24T22:07:48.406Z,93945.48
2017-07-24T22:10:16.002Z,93949.94
2017-07-24T22:12:43.549Z,93951.84
2017-07-24T22:15:11.061Z,93950.00
2017-07-24T22:17:38.564Z,93951.71
2017-07-24T22:20:06.149Z,93965.35
2017-07-24T22:22:33.650Z,93945.93
2017-07-24T22:25:01.200Z,93951.27
2017-07-24T22:27:28.744Z,93947.27
2017-07-24T22:29:56.294Z,93945.04
2017-07-24T22:32:23.801Z,93942.67
2017-07-24T22:34:51.305Z,93942.52
2017-07-24T22:37:18.908Z,93939.13
2017-07-24T22:39:46.412Z,93933.92
2017-07-24T22:42:13.920Z,93930.23
2017-07-24T22:44:41.471Z,93941.34
2017-07-24T22:47:08.988Z,93936.22
2017-07-24T22:49:36.547Z,93937.92
2017-07-24T22:52:04.069Z,93945.17
2017-07-24T22:54:31.586Z,93943.63
2017-07-24T22:56:59.161Z,93939.19
2017-07-24T22:59:26.666Z,93942.23
2017-07-24T23:01:54.199Z,93938.06
2017-07-24T23:04:21.746Z,93944.01
2017-07-24T23:06:49.377Z,93930.16
2017-07-24T23:09:16.880Z,93927.94
2017-07-24T23:11:44.386Z,93931.77
2017-07-24T23:14:11.937Z,93945.61
2017-07-24T23:16:39.445Z,93934.87
2017-07-24T23:19:06.991Z,93937.20
2017-07-24T23:21:34.566Z,93924.31
2017-07-24T23:24:02.089Z,93936.30
2017-07-24T23:26:29.619Z,93919.94
2017-07-24T23:28:57.160Z,93914.67
2017-07-24T23:31:24.705Z,93921.41
2017-07-24T23:33:52.265Z,93908.45
2017-07-24T23:36:19.769Z,93907.04
2017-07-24T23:38:47.272Z,93896.52
2017-07-24T23:41:14.827Z,93901.02
2017-07-24T23:43:42.328Z,93905.70
2017-07-24T23:46:09.852Z,93902.87
2017-07-24T23:48:37.401Z,93903.17
2017-07-24T23:51:04.901Z,93896.89
2017-07-24T23:53:32.404Z,93902.36
2017-07-24T23:55:59.957Z,93900.89
2017-07-24T23:58:27.461Z,93915.11
